Time;durP1;ratioP1;P1;durP2;ratioP2;P2;SDS_P1;SDS_P2;PMS_P1;PMS_P2;Temp;Humidity;BMP_temperature;BMP_pressure;BME280_temperature;BME280_humidity;BME280_pressure;Samples;Min_cycle;Max_cycle;Signal;HPM_P1;HPM_P2
2022/08/24 00:00:52;;;;;;;11.65;9.93;;;;;;;16.74;100.00;164944.84;4993489;28;20528;-65
2022/08/24 00:03:18;;;;;;;13.90;9.00;;;;;;;16.73;100.00;164942.13;4995235;28;20038;-66
2022/08/24 00:05:43;;;;;;;21.70;10.25;;;;;;;16.67;100.00;164924.53;4993407;28;20049;-65
2022/08/24 00:08:09;;;;;;;12.10;8.65;;;;;;;16.57;100.00;164898.81;4994796;28;20030;-65
2022/08/24 00:10:34;;;;;;;11.93;9.77;;;;;;;16.55;100.00;164894.72;4993407;28;20047;-66
2022/08/24 00:12:59;;;;;;;22.17;10.05;;;;;;;16.49;100.00;164878.47;4994708;28;20041;-65
2022/08/24 00:15:25;;;;;;;12.10;9.57;;;;;;;16.42;100.00;164859.50;4992811;28;20042;-65
2022/08/24 00:17:51;;;;;;;13.77;9.70;;;;;;;16.38;100.00;164850.03;4995288;28;20419;-65
2022/08/24 00:20:16;;;;;;;15.55;9.25;;;;;;;16.36;100.00;164844.59;4993491;28;20038;-65
2022/08/24 00:22:42;;;;;;;12.25;8.60;;;;;;;16.35;100.00;164841.88;4994246;28;20026;-64
2022/08/24 00:25:09;;;;;;;12.40;9.95;;;;;;;16.32;100.00;164833.78;4993410;28;20044;-64
2022/08/24 00:27:35;;;;;;;13.47;8.83;;;;;;;16.23;100.00;164809.41;4994171;28;20124;-64
2022/08/24 00:30:04;;;;;;;19.80;10.00;;;;;;;16.29;100.00;164825.63;4992032;28;20477;-64
2022/08/24 00:32:29;;;;;;;15.45;11.07;;;;;;;16.28;100.00;164822.91;4993216;28;20025;-64
2022/08/24 00:34:55;;;;;;;11.75;8.27;;;;;;;16.21;100.00;164803.97;4992042;28;20054;-65
2022/08/24 00:37:20;;;;;;;15.50;7.60;;;;;;;16.10;100.00;164775.53;4993208;28;20022;-65
2022/08/24 00:39:45;;;;;;;12.63;9.93;;;;;;;16.01;100.00;164752.53;4991467;28;20382;-66
2022/08/24 00:42:11;;;;;;;12.52;10.52;;;;;;;15.91;100.00;164726.81;4993109;28;20037;-66
2022/08/24 00:44:36;;;;;;;13.82;11.13;;;;;;;15.85;100.00;164711.88;4991339;28;20050;-66
2022/08/24 00:47:10;;;;;;;17.50;11.38;;;;;;;15.85;100.00;164711.88;4992978;28;20022;-65
2022/08/24 00:49:43;;;;;;;17.95;10.23;;;;;;;15.84;100.00;164709.19;4991463;28;20045;-64
2022/08/24 00:52:18;;;;;;;13.77;9.95;;;;;;;15.86;100.00;164714.59;4992675;28;20027;-67
2022/08/24 00:54:50;;;;;;;12.43;9.23;;;;;;;15.86;100.00;164714.59;4991266;28;20497;-66
2022/08/24 00:57:19;;;;;;;13.05;10.32;;;;;;;15.86;100.00;164714.59;4993143;28;20120;-67
2022/08/24 00:59:49;;;;;;;13.45;12.05;;;;;;;15.86;100.00;164714.59;4988664;28;20070;-68
2022/08/24 01:02:20;;;;;;;14.63;12.23;;;;;;;15.83;100.00;164706.47;4992606;28;20477;-68
2022/08/24 01:04:53;;;;;;;12.35;11.05;;;;;;;15.79;100.00;164695.59;4990666;28;20417;-68
2022/08/24 01:07:21;;;;;;;20.10;12.10;;;;;;;15.76;100.00;164687.47;4990824;28;20413;-67
2022/08/24 01:09:48;;;;;;;10.57;9.50;;;;;;;15.76;100.00;164687.47;4990477;28;20042;-67
2022/08/24 01:12:13;;;;;;;12.50;11.13;;;;;;;15.72;100.00;164676.66;4992272;28;20022;-67
2022/08/24 01:14:38;;;;;;;12.75;11.38;;;;;;;15.66;100.00;164660.41;4990277;28;20045;-67
2022/08/24 01:19:52;;;;;;;11.88;10.77;;;;;;;15.59;100.00;164642.78;4988118;28;20045;-67
2022/08/24 01:22:40;;;;;;;15.45;10.63;;;;;;;15.57;100.00;164636.03;4990444;28;20088;-67
2022/08/24 01:25:06;;;;;;;12.45;10.18;;;;;;;15.57;100.00;164637.34;4991260;28;20405;-67
2022/08/24 01:27:34;;;;;;;14.57;10.65;;;;;;;15.59;100.00;164642.78;4992497;28;20425;-67
2022/08/24 01:30:03;;;;;;;17.48;12.90;;;;;;;15.61;100.00;164646.84;4955990;28;1021683;-67
2022/08/24 01:32:28;;;;;;;12.15;11.00;;;;;;;15.60;100.00;164644.16;4993169;28;20030;-67
2022/08/24 01:34:55;;;;;;;11.38;10.27;;;;;;;15.46;100.00;164608.94;4992071;28;20521;-67
2022/08/24 01:37:21;;;;;;;14.13;12.32;;;;;;;15.34;100.00;164576.47;4992935;28;20014;-67
2022/08/24 01:39:48;;;;;;;15.80;12.43;;;;;;;15.29;100.00;164562.94;4991580;28;20055;-67
2022/08/24 01:42:14;;;;;;;11.07;9.90;;;;;;;15.21;100.00;164544.00;4993221;28;20153;-67
2022/08/24 01:44:42;;;;;;;14.65;10.55;;;;;;;15.15;100.00;164526.38;4991339;28;20038;-67
2022/08/24 01:47:09;;;;;;;;;;;;;;;15.18;100.00;164535.84;4993670;28;20022;-67
2022/08/24 01:49:40;;;;;;;14.60;12.98;;;;;;;15.19;100.00;164538.56;4991640;28;19936;-67
2022/08/24 01:52:09;;;;;;;15.63;11.50;;;;;;;15.22;100.00;164545.31;4992440;28;20030;-64
2022/08/24 01:54:34;;;;;;;15.85;12.13;;;;;;;15.18;100.00;164535.84;4991442;28;20043;-64
2022/08/24 01:57:00;;;;;;;20.77;13.23;;;;;;;15.18;100.00;164535.84;4993283;28;20076;-63
2022/08/24 01:59:26;;;;;;;16.75;14.32;;;;;;;15.18;100.00;164535.84;4990300;28;20513;-64
2022/08/24 02:01:57;;;;;;;18.08;13.82;;;;;;;15.20;100.00;164539.88;4993210;28;20029;-63
2022/08/24 02:04:23;;;;;;;16.63;14.98;;;;;;;15.18;100.00;164534.50;4991569;28;20039;-63
2022/08/24 02:06:48;;;;;;;17.95;14.02;;;;;;;15.15;100.00;164527.72;4992076;28;20023;-63
2022/08/24 02:09:14;;;;;;;15.65;13.63;;;;;;;15.10;100.00;164514.19;4991588;28;20524;-64
2022/08/24 02:11:40;;;;;;;19.15;13.88;;;;;;;15.13;100.00;164522.31;4992328;28;20042;-66
2022/08/24 02:14:06;;;;;;;17.35;13.73;;;;;;;15.11;100.00;164516.91;4990765;28;20042;-61
2022/08/24 02:16:32;;;;;;;13.63;12.43;;;;;;;15.04;100.00;164497.94;4992356;28;20030;-62
2022/08/24 02:18:57;;;;;;;15.70;12.95;;;;;;;15.00;100.00;164487.16;4991433;28;20033;-62
2022/08/24 02:21:24;;;;;;;16.90;15.40;;;;;;;14.99;100.00;164484.44;4992082;28;20022;-62
2022/08/24 02:23:50;;;;;;;15.48;13.73;;;;;;;14.98;100.00;164481.72;4991248;28;20077;-63
2022/08/24 02:26:16;;;;;;;19.60;15.50;;;;;;;14.89;100.00;164460.06;4992526;28;20022;-63
2022/08/24 02:28:42;;;;;;;14.50;12.85;;;;;;;14.81;100.00;164437.06;4992091;28;20041;-63
2022/08/24 02:31:11;;;;;;;15.32;12.43;;;;;;;14.75;100.00;164422.16;4990705;28;20043;-63
2022/08/24 02:33:37;;;;;;;20.73;14.70;;;;;;;14.72;100.00;164415.41;4992240;28;20117;-63
2022/08/24 02:36:05;;;;;;;19.30;15.98;;;;;;;14.72;100.00;164415.41;4990319;28;20069;-63
2022/08/24 02:38:30;;;;;;;17.77;14.20;;;;;;;14.76;100.00;164424.88;4991957;28;20038;-62
2022/08/24 02:40:56;;;;;;;18.67;14.85;;;;;;;14.72;100.00;164414.03;4990808;28;20494;-61
2022/08/24 02:43:23;;;;;;;17.08;14.98;;;;;;;14.72;100.00;164414.03;4992055;28;20026;-61
2022/08/24 02:45:48;;;;;;;18.33;14.95;;;;;;;14.72;100.00;164414.03;4990576;28;20417;-61
2022/08/24 02:48:14;;;;;;;20.83;15.35;;;;;;;14.73;100.00;164416.75;4992390;28;20037;-62
2022/08/24 02:50:42;;;;;;;19.85;14.27;;;;;;;14.69;100.00;164405.94;4989615;28;20049;-62
2022/08/24 02:53:09;;;;;;;16.65;14.68;;;;;;;14.55;100.00;164370.72;4991991;28;20028;-63
2022/08/24 02:55:35;;;;;;;18.15;16.02;;;;;;;14.65;100.00;164395.03;4990301;28;20125;-63
2022/08/24 02:58:01;;;;;;;19.23;15.73;;;;;;;14.65;100.00;164395.03;4991950;28;20026;-63
2022/08/24 03:00:26;;;;;;;18.25;16.55;;;;;;;14.65;100.00;164395.03;4990397;28;20158;-64
2022/08/24 03:02:53;;;;;;;27.40;18.27;;;;;;;14.65;100.00;164395.03;4992221;28;20065;-64
2022/08/24 03:05:19;;;;;;;17.92;16.35;;;;;;;14.68;100.00;164404.56;4990025;28;20041;-66
2022/08/24 03:07:44;;;;;;;18.25;16.15;;;;;;;14.70;100.00;164408.66;4991949;28;20038;-62
2022/08/24 03:10:10;;;;;;;18.67;14.55;;;;;;;14.67;100.00;164401.84;4990331;28;20050;-61
2022/08/24 03:12:36;;;;;;;18.98;16.27;;;;;;;14.63;100.00;164391.00;4991292;28;20052;-62
2022/08/24 03:15:03;;;;;;;22.05;16.63;;;;;;;14.59;100.00;164381.53;4990422;28;20121;-59
2022/08/24 03:17:32;;;;;;;19.83;17.77;;;;;;;14.62;100.00;164386.94;4991360;28;20060;-62
2022/08/24 03:19:57;;;;;;;20.38;18.42;;;;;;;14.58;100.00;164378.81;4989870;28;20038;-62
2022/08/24 03:22:23;;;;;;;20.92;18.88;;;;;;;14.54;100.00;164368.00;4992004;28;20054;-62
2022/08/24 03:24:48;;;;;;;21.20;19.08;;;;;;;14.50;100.00;164357.16;4990079;28;20379;-62
2022/08/24 03:27:14;;;;;;;19.45;17.63;;;;;;;14.46;100.00;164346.34;4991509;28;20038;-61
2022/08/24 03:29:39;;;;;;;19.30;17.48;;;;;;;14.41;100.00;164332.78;4989910;28;20406;-62
2022/08/24 03:32:05;;;;;;;19.35;17.30;;;;;;;14.37;100.00;164322.00;4991475;28;20390;-62
2022/08/24 03:34:30;;;;;;;24.08;19.00;;;;;;;14.34;100.00;164313.84;4989536;28;20117;-62
2022/08/24 03:36:55;;;;;;;20.58;18.23;;;;;;;14.25;100.00;164292.25;4991593;28;20033;-62
2022/08/24 03:39:21;;;;;;;20.55;18.58;;;;;;;14.21;100.00;164280.06;4990191;28;20092;-61
2022/08/24 03:41:46;;;;;;;21.92;19.67;;;;;;;14.18;100.00;164271.94;4990992;28;20023;-61
2022/08/24 03:44:11;;;;;;;23.10;18.13;;;;;;;14.11;100.00;164254.38;4990077;28;20112;-62
2022/08/24 03:46:37;;;;;;;23.67;17.35;;;;;;;14.17;100.00;164270.59;4991224;28;20034;-62
2022/08/24 03:49:07;;;;;;;20.33;17.67;;;;;;;14.16;100.00;164267.88;4989758;28;20044;-63
2022/08/24 03:51:34;;;;;;;19.83;16.52;;;;;;;14.11;100.00;164254.38;4991436;28;20427;-62
2022/08/24 03:54:00;;;;;;;21.58;16.20;;;;;;;14.05;100.00;164238.09;4990186;28;20030;-62
2022/08/24 03:56:26;;;;;;;21.15;17.40;;;;;;;14.05;100.00;164239.47;4990970;28;20498;-63
2022/08/24 03:58:52;;;;;;;23.20;17.55;;;;;;;14.08;100.00;164246.25;4990258;28;20018;-63
2022/08/24 04:01:18;;;;;;;21.23;19.08;;;;;;;14.07;100.00;164243.53;4990908;28;20024;-62
2022/08/24 04:03:45;;;;;;;25.35;18.00;;;;;;;14.07;100.00;164244.84;4990849;28;20081;-62
2022/08/24 04:06:12;;;;;;;25.60;19.25;;;;;;;14.02;100.00;164230.03;4989976;28;20042;-62
2022/08/24 04:08:37;;;;;;;24.35;20.13;;;;;;;14.07;100.00;164244.84;4990986;28;20105;-62
2022/08/24 04:11:03;;;;;;;20.48;18.60;;;;;;;14.12;100.00;164257.03;4989395;28;20038;-63
2022/08/24 04:13:30;;;;;;;29.27;23.58;;;;;;;14.14;100.00;164262.47;4990059;28;20097;-65
2022/08/24 04:15:57;;;;;;;29.33;21.35;;;;;;;14.17;100.00;164270.59;4989071;28;20050;-64
2022/08/24 04:18:22;;;;;;;22.35;20.00;;;;;;;14.18;100.00;164273.31;4990590;28;20022;-65
2022/08/24 04:20:48;;;;;;;25.30;17.77;;;;;;;14.14;100.00;164261.13;4987899;28;20038;-64
2022/08/24 04:23:14;;;;;;;18.38;15.00;;;;;;;14.07;100.00;164243.53;4993314;28;20076;-65
2022/08/24 04:25:45;;;;;;;20.60;18.33;;;;;;;14.01;100.00;164227.31;4992820;28;20046;-65
2022/08/24 04:28:12;;;;;;;22.40;19.98;;;;;;;13.93;100.00;164207.00;4994774;28;20053;-64
2022/08/24 04:30:42;;;;;;;24.17;20.13;;;;;;;13.89;100.00;164197.53;4992349;28;20073;-65
2022/08/24 04:33:09;;;;;;;24.85;19.73;;;;;;;13.84;100.00;164182.69;4975026;28;20041;-65
2022/08/24 04:35:39;;;;;;;22.95;18.02;;;;;;;13.76;100.00;164162.38;4973445;28;20038;-65
2022/08/24 04:38:06;;;;;;;22.40;19.95;;;;;;;13.72;100.00;164151.56;4981136;28;20040;-64
2022/08/24 04:40:31;;;;;;;23.27;20.58;;;;;;;13.68;100.00;164140.72;4991646;28;20917;-64
2022/08/24 04:42:57;;;;;;;25.13;20.92;;;;;;;13.74;100.00;164156.94;4994002;28;20031;-64
2022/08/24 04:45:23;;;;;;;34.22;20.77;;;;;;;13.76;100.00;164162.38;4992994;28;20046;-64
2022/08/24 04:47:49;;;;;;;21.63;18.92;;;;;;;13.75;100.00;164159.66;4993798;28;20072;-64
2022/08/24 04:50:14;;;;;;;25.98;19.08;;;;;;;13.75;100.00;164159.66;4993064;28;20417;-64
2022/08/24 04:52:40;;;;;;;26.08;20.10;;;;;;;13.76;100.00;164163.75;4993757;28;20474;-64
2022/08/24 04:55:06;;;;;;;23.33;18.80;;;;;;;13.80;100.00;164173.22;4992714;28;20035;-65
2022/08/24 04:57:33;;;;;;;52.50;20.45;;;;;;;13.84;100.00;164184.00;4993185;28;20037;-65
2022/08/24 04:59:58;;;;;;;23.23;20.88;;;;;;;13.89;100.00;164196.19;4992798;28;20088;-65
2022/08/24 05:02:24;;;;;;;29.13;21.05;;;;;;;13.95;100.00;164213.78;4993990;28;20018;-64
2022/08/24 05:04:50;;;;;;;42.10;21.27;;;;;;;14.02;100.00;164230.03;4992470;28;20130;-65
2022/08/24 05:07:17;;;;;;;22.85;19.95;;;;;;;14.05;100.00;164238.09;4994181;28;20025;-62
2022/08/24 05:09:43;;;;;;;25.48;22.88;;;;;;;14.07;100.00;164243.53;4992358;28;20038;-61
2022/08/24 05:12:08;;;;;;;28.50;23.98;;;;;;;14.05;100.00;164238.09;4993410;28;20470;-63
2022/08/24 05:14:33;;;;;;;28.75;22.75;;;;;;;14.07;100.00;164244.84;4992369;28;20038;-63
2022/08/24 05:16:59;;;;;;;33.72;24.25;;;;;;;14.11;100.00;164255.72;4994232;28;20027;-62
2022/08/24 05:19:24;;;;;;;28.02;21.98;;;;;;;14.18;100.00;164271.94;4991723;28;20042;-57
2022/08/24 05:21:50;;;;;;;32.38;24.60;;;;;;;14.24;100.00;164288.16;4993717;28;20022;-58
2022/08/24 05:24:15;;;;;;;28.92;26.13;;;;;;;14.31;100.00;164307.09;4992311;28;20038;-58
2022/08/24 05:26:40;;;;;;;32.55;23.95;;;;;;;14.36;100.00;164320.66;4993208;28;20030;-58
2022/08/24 05:29:06;;;;;;;27.08;22.95;;;;;;;14.42;100.00;164336.88;4991849;28;20592;-58
2022/08/24 05:31:32;;;;;;;29.42;24.50;;;;;;;14.48;100.00;164350.41;4992000;28;20053;-58
2022/08/24 05:33:59;;;;;;;28.05;25.00;;;;;;;14.55;100.00;164370.72;4990638;28;20030;-58
2022/08/24 05:36:29;;;;;;;28.77;25.42;;;;;;;14.64;100.00;164393.72;4993333;28;20030;-58
2022/08/24 05:38:59;;;;;;;28.38;25.40;;;;;;;14.73;100.00;164343.03;4991874;28;20036;-58
2022/08/24 05:41:24;;;;;;;30.20;27.23;;;;;;;14.82;100.00;164441.13;4992783;28;20497;-58
2022/08/24 05:43:50;;;;;;;29.80;27.15;;;;;;;14.90;100.00;164017.72;4991923;28;20117;-58
2022/08/24 05:46:15;;;;;;;28.75;25.60;;;;;;;15.00;100.00;162658.19;4993224;28;20022;-58
2022/08/24 05:48:41;;;;;;;32.30;28.95;;;;;;;15.14;100.00;160789.38;4992382;28;20033;-58
2022/08/24 05:51:08;;;;;;;32.20;28.80;;;;;;;15.27;100.00;159703.28;4991546;28;20039;-58
2022/08/24 05:53:33;;;;;;;40.50;36.63;;;;;;;15.42;100.00;159820.53;4992881;28;20019;-58
2022/08/24 05:56:09;;;;;;;40.92;35.95;;;;;;;15.56;100.00;160584.84;4991377;28;20038;-58
2022/08/24 05:58:36;;;;;;;36.40;32.80;;;;;;;15.70;100.00;159051.28;4992411;28;20236;-58
2022/08/24 06:01:06;;;;;;;38.20;34.42;;;;;;;15.83;100.00;155803.53;4991690;28;20034;-58
2022/08/24 06:03:31;;;;;;;41.35;37.05;;;;;;;15.99;100.00;154418.38;4992416;28;20038;-58
2022/08/24 06:05:56;;;;;;;39.10;33.80;;;;;;;16.11;100.00;152669.75;4991522;28;20038;-58
2022/08/24 06:08:22;;;;;;;40.75;36.53;;;;;;;16.27;100.00;151996.91;4992909;28;20030;-58
2022/08/24 06:10:48;;;;;;;34.75;31.27;;;;;;;16.43;100.00;151323.84;4990578;28;20038;-58
2022/08/24 06:13:14;;;;;;;39.90;34.70;;;;;;;16.59;100.00;151362.31;4990294;28;20038;-58
2022/08/24 06:15:41;;;;;;;38.13;34.28;;;;;;;16.78;100.00;152120.28;4999722;28;20092;-58
2022/08/24 06:18:07;;;;;;;32.17;28.95;;;;;;;16.95;100.00;153585.06;4994293;28;20485;-58
2022/08/24 06:20:37;;;;;;;37.58;32.53;;;;;;;17.14;100.00;156127.16;5005279;28;20041;-58
2022/08/24 06:23:03;;;;;;;41.90;35.78;;;;;;;17.34;100.00;161174.28;5011690;28;20028;-58
2022/08/24 06:28:13;;;;;;;37.95;34.15;;;;;;;17.72;100.00;165201.03;5012126;28;20102;-58
2022/08/24 06:30:38;;;;;;;39.15;35.05;;;;;;;17.89;100.00;165245.75;5010069;28;20450;-58
2022/08/24 06:33:04;;;;;;;36.30;32.10;;;;;;;18.07;100.00;165294.59;5011685;28;20052;-58
2022/08/24 06:35:30;;;;;;;39.22;35.28;;;;;;;18.23;100.00;165336.66;5010416;28;20530;-58
2022/08/24 06:37:55;;;;;;;37.75;33.47;;;;;;;18.42;100.00;165385.44;5012114;28;20125;-58
2022/08/24 06:40:21;;;;;;;41.90;32.15;;;;;;;18.64;100.00;165443.78;5010267;28;20493;-58
2022/08/24 06:42:47;;;;;;;37.30;33.50;;;;;;;18.82;100.00;165489.84;5011611;28;20029;-58
2022/08/24 06:45:12;;;;;;;33.13;29.70;;;;;;;18.98;100.00;165533.31;5010070;28;20034;-58
2022/08/24 06:47:38;;;;;;;33.70;29.67;;;;;;;19.12;100.00;165569.97;5011138;28;20040;-58
2022/08/24 06:50:05;;;;;;;44.00;32.15;;;;;;;19.27;100.00;165609.28;5010210;28;20495;-58
2022/08/24 06:52:31;;;;;;;32.30;28.83;;;;;;;19.45;100.00;165656.75;5011497;28;20030;-58
2022/08/24 06:54:56;;;;;;;29.17;26.27;;;;;;;19.62;100.00;165700.19;5010135;28;20168;-58
2022/08/24 06:57:21;;;;;;;27.00;24.60;;;;;;;19.84;100.00;165758.63;5011580;28;20026;-58
2022/08/24 06:59:47;;;;;;;26.58;23.95;;;;;;;20.02;100.00;165804.72;5009871;28;20034;-58
2022/08/24 07:02:14;;;;;;;29.73;24.00;;;;;;;20.20;100.00;165853.59;5011417;28;20034;-58
2022/08/24 07:04:40;;;;;;;27.48;23.98;;;;;;;20.42;100.00;165911.94;5009795;28;20128;-58
2022/08/24 07:07:05;;;;;;;35.95;23.67;;;;;;;20.65;100.00;165970.34;5011400;28;20397;-58
2022/08/24 07:09:31;;;;;;;25.98;20.10;;;;;;;20.96;100.00;166051.88;5009087;28;20037;-57
2022/08/24 07:11:56;;;;;;;34.00;21.35;;;;;;;21.30;100.00;166142.81;5010776;28;20051;-58
2022/08/24 07:14:21;;;;;;;40.95;21.88;;;;;;;21.83;100.00;166281.41;5009751;28;20053;-58
2022/08/24 07:16:47;;;;;;;26.38;17.60;;;;;;;22.40;100.00;166432.28;5008755;28;20444;-58
2022/08/24 07:19:12;;;;;;;27.02;17.85;;;;;;;23.10;100.00;166617.13;5008076;28;20033;-58
2022/08/24 07:21:38;;;;;;;37.80;15.52;;;;;;;23.78;100.00;166795.25;5010493;28;20026;-58
2022/08/24 07:24:05;;;;;;;33.90;14.75;;;;;;;24.24;100.00;166917.69;5008579;28;20026;-58
2022/08/24 07:26:31;;;;;;;22.73;13.25;;;;;;;24.63;100.00;167019.69;5010674;28;20029;-58
2022/08/24 07:29:06;;;;;;;18.85;11.07;;;;;;;25.08;100.00;167136.75;5009174;28;20393;-58
2022/08/24 07:31:36;;;;;;;24.92;10.20;;;;;;;25.52;100.00;167253.81;5010663;28;20064;-58
2022/08/24 07:34:03;;;;;;;27.45;12.20;;;;;;;25.94;100.00;167364.06;5009320;28;20030;-58
2022/08/24 07:36:28;;;;;;;22.05;11.90;;;;;;;26.37;100.00;167478.44;5010984;28;20030;-58
2022/08/24 07:38:54;;;;;;;30.77;11.73;;;;;;;26.76;100.00;167581.97;5009647;28;20049;-58
2022/08/24 07:41:21;;;;;;;23.38;10.75;;;;;;;27.15;100.00;167684.09;5011087;28;20462;-58
2022/08/24 07:43:47;;;;;;;21.48;9.25;;;;;;;27.42;100.00;167755.00;5009840;28;20025;-58
2022/08/24 07:46:12;;;;;;;12.00;7.65;;;;;;;27.79;100.00;167851.69;5010721;28;20153;-58
2022/08/24 07:48:39;;;;;;;15.10;9.30;;;;;;;28.10;100.00;167934.88;5010928;28;20188;-58
2022/08/24 07:51:12;;;;;;;22.75;8.63;;;;;;;28.50;100.00;168041.13;5009516;28;20043;-58
2022/08/24 07:53:38;;;;;;;19.30;9.32;;;;;;;28.76;100.00;168109.34;5010451;28;20033;-58
2022/08/24 07:56:04;;;;;;;22.08;8.70;;;;;;;28.89;100.00;168142.03;5009670;28;20516;-58
2022/08/24 07:58:29;;;;;;;12.55;8.43;;;;;;;28.88;100.00;168139.28;5013773;28;20030;-59
2022/08/24 08:00:55;;;;;;;16.48;6.72;;;;;;;28.79;100.00;168116.16;5013001;28;20041;-58
2022/08/24 08:03:22;;;;;;;12.15;6.75;;;;;;;28.49;100.00;168037.06;5015053;28;20029;-58
2022/08/24 08:05:48;;;;;;;10.40;5.68;;;;;;;28.18;100.00;167956.63;5006298;28;20038;-59
2022/08/24 08:08:13;;;;;;;9.35;6.57;;;;;;;27.75;100.00;167842.16;5007915;28;20026;-59
2022/08/24 08:10:39;;;;;;;10.23;6.40;;;;;;;27.61;100.00;167804.00;5000276;28;20076;-59
2022/08/24 08:13:05;;;;;;;13.60;7.75;;;;;;;27.48;100.00;167769.94;4994816;28;20041;-58
2022/08/24 08:15:30;;;;;;;16.20;7.53;;;;;;;27.37;100.00;167742.69;4992792;28;20042;-58
2022/08/24 08:17:56;;;;;;;10.35;7.00;;;;;;;27.38;100.00;167745.41;4994591;28;20436;-59
2022/08/24 08:20:22;;;;;;;6.85;4.63;;;;;;;27.42;100.00;167755.00;5006506;28;20492;-59
2022/08/24 08:25:34;;;;;;;6.38;3.63;;;;;;;27.87;100.00;167873.47;5012933;28;20045;-58
2022/08/24 08:27:59;;;;;;;7.80;3.47;;;;;;;28.45;100.00;168027.50;5013471;28;20085;-59
2022/08/24 08:30:25;;;;;;;8.52;2.90;;;;;;;29.01;100.00;168174.72;5012556;28;20054;-59
2022/08/24 08:32:50;;;;;;;6.55;4.45;;;;;;;29.63;100.00;168338.38;5014481;28;20029;-59
2022/08/24 08:35:15;;;;;;;10.00;3.83;;;;;;;29.92;100.00;168414.75;5012912;28;20038;-59
2022/08/24 08:37:41;;;;;;;7.72;3.50;;;;;;;30.05;100.00;168448.84;5013973;28;20037;-59
2022/08/24 08:40:11;;;;;;;8.77;3.72;;;;;;;30.12;100.00;168466.59;5012769;28;20046;-59
2022/08/24 08:42:55;;;;;;;5.90;3.72;;;;;;;29.98;100.00;168431.13;5013767;28;20500;-59
2022/08/24 08:45:52;;;;;;;7.80;3.60;;;;;;;29.89;100.00;168406.56;5012448;28;20042;-59
2022/08/24 08:48:46;;;;;;;6.22;3.35;;;;;;;29.59;100.00;168327.47;5006617;28;20049;-59
2022/08/24 08:51:50;;;;;;;6.57;3.20;;;;;;;29.43;100.00;168286.56;5012459;28;20075;-59
2022/08/24 08:54:28;;;;;;;13.15;4.13;;;;;;;29.42;100.00;168283.84;5012754;28;20033;-59
2022/08/24 08:57:09;;;;;;;10.77;3.03;;;;;;;29.29;100.00;168248.38;5014107;28;20109;-59
2022/08/24 08:59:46;;;;;;;9.20;3.50;;;;;;;29.23;100.00;168231.97;5012056;28;20042;-59
2022/08/24 09:02:23;;;;;;;4.90;3.67;;;;;;;29.23;100.00;168231.97;5013746;28;20026;-59
2022/08/24 09:05:01;;;;;;;7.00;4.53;;;;;;;29.34;100.00;168262.03;5012272;28;20030;-59
2022/08/24 09:07:48;;;;;;;4.28;3.03;;;;;;;29.40;100.00;168277.03;5013557;28;20064;-59
2022/08/24 09:10:45;;;;;;;4.38;3.40;;;;;;;29.37;100.00;168270.22;5012416;28;20409;-59
2022/08/24 09:13:31;;;;;;;4.05;3.28;;;;;;;29.65;100.00;168342.44;5013571;28;20045;-59
2022/08/24 09:16:23;;;;;;;5.57;2.83;;;;;;;29.75;100.00;168371.06;5011999;28;20528;-59
2022/08/24 09:19:02;;;;;;;4.50;2.92;;;;;;;29.89;100.00;168407.91;5012055;28;20177;-59
2022/08/24 09:21:58;;;;;;;9.05;2.80;;;;;;;30.02;100.00;168442.06;5013153;28;20010;-59
2022/08/24 09:25:03;;;;;;;2.60;1.90;;;;;;;30.20;100.00;168488.38;5011838;28;20566;-59
2022/08/24 09:27:39;;;;;;;5.72;2.45;;;;;;;30.17;100.00;168480.22;5012592;28;20040;-59
2022/08/24 09:30:11;;;;;;;3.75;1.88;;;;;;;30.38;100.00;168537.50;5005815;28;20058;-59
2022/08/24 09:32:50;;;;;;;9.13;2.65;;;;;;;30.51;100.00;168570.25;5006769;28;20026;-59
2022/08/24 09:35:30;;;;;;;5.70;2.83;;;;;;;30.77;100.00;168638.47;5011595;28;20045;-59
2022/08/24 09:38:12;;;;;;;6.80;2.75;;;;;;;30.82;100.00;168652.09;4995848;28;20061;-59
2022/08/24 09:41:21;;;;;;;7.72;1.83;;;;;;;30.60;100.00;168594.81;4991259;28;20490;-59
2022/08/24 09:44:39;;;;;;;5.78;1.70;;;;;;;30.79;100.00;168643.94;4991465;28;20026;-59
2022/08/24 09:47:29;;;;;;;2.70;1.63;;;;;;;30.66;100.00;168611.19;4993385;28;20033;-59
2022/08/24 09:50:29;;;;;;;5.72;2.60;;;;;;;30.55;99.42;168581.19;4991855;28;20402;-59
2022/08/24 09:53:30;;;;;;;3.08;1.83;;;;;;;30.54;100.00;168578.47;4992719;28;20033;-59
2022/08/24 09:56:13;;;;;;;8.45;2.40;;;;;;;30.66;100.00;168611.19;4991701;28;20047;-59
2022/08/24 09:58:56;;;;;;;3.80;1.88;;;;;;;30.87;100.00;168665.72;4992501;28;20497;-59
2022/08/24 10:01:47;;;;;;;3.88;1.73;;;;;;;31.02;99.09;168706.66;4991747;28;20046;-59
2022/08/24 10:04:37;;;;;;;6.00;1.60;;;;;;;31.08;95.46;168720.34;4991733;28;20043;-59
2022/08/24 10:07:10;;;;;;;2.00;1.35;;;;;;;31.05;96.53;168712.13;4992307;28;20161;-59
2022/08/24 10:10:02;;;;;;;1.85;1.40;;;;;;;31.22;94.61;168758.56;4991243;28;20041;-59
2022/08/24 10:12:38;;;;;;;4.50;1.52;;;;;;;31.22;92.58;168758.56;4991558;28;20030;-59
2022/08/24 10:15:13;;;;;;;3.80;1.67;;;;;;;31.31;91.59;168783.09;4990863;28;20433;-59
2022/08/24 10:18:00;;;;;;;1.95;1.50;;;;;;;31.48;90.55;168826.75;4992424;28;20140;-59
2022/08/24 10:20:46;;;;;;;3.30;1.05;;;;;;;31.39;87.54;168802.25;4990616;28;20803;-59
2022/08/24 10:23:49;;;;;;;3.30;1.45;;;;;;;31.49;86.28;168829.50;4992474;28;20026;-59
2022/08/24 10:26:39;;;;;;;2.47;1.52;;;;;;;31.05;88.43;168713.50;4990866;28;20061;-59
2022/08/24 10:29:34;;;;;;;5.05;1.60;;;;;;;31.45;89.76;168818.59;4990072;28;20065;-59
2022/08/24 10:32:21;;;;;;;4.60;1.30;;;;;;;31.63;88.68;168867.69;4991662;28;20023;-59
2022/08/24 10:35:00;;;;;;;5.88;1.73;;;;;;;31.72;86.05;168889.59;4990617;28;20046;-59
2022/08/24 10:39:39;;;;;;;4.63;1.30;;;;;;;31.57;82.57;168851.34;4978689;28;20569;-58
2022/08/24 10:41:13;;;;;;;4.25;1.60;;;;;;;31.92;85.22;168944.16;4990580;28;20046;-59
2022/08/24 10:43:56;;;;;;;5.10;1.58;;;;;;;32.00;84.28;168963.25;4991334;28;20076;-59
2022/08/24 10:46:44;;;;;;;1.95;1.35;;;;;;;32.18;82.21;169012.41;4971638;28;20054;-59
2022/08/24 10:49:42;;;;;;;4.45;2.00;;;;;;;32.07;82.84;168982.34;4971828;28;20054;-58
2022/08/24 10:52:45;;;;;;;3.45;1.63;;;;;;;31.72;78.79;168889.59;4972272;28;20426;-59
2022/08/24 10:55:18;;;;;;;3.70;1.50;;;;;;;31.91;79.18;168940.06;4971431;28;20050;-59
2022/08/24 10:58:06;;;;;;;5.88;1.88;;;;;;;31.55;77.22;168845.88;4972126;28;20106;-59
2022/08/24 11:00:31;;;;;;;6.78;1.95;;;;;;;31.31;78.47;168781.75;4971065;28;20432;-59
2022/08/24 11:03:12;;;;;;;4.03;1.83;;;;;;;31.58;80.81;168852.69;4972627;28;20113;-59
2022/08/24 11:05:45;;;;;;;5.15;1.90;;;;;;;31.09;77.66;168723.13;4970663;28;20240;-59
2022/08/24 11:08:18;;;;;;;6.07;1.52;;;;;;;31.31;78.81;168783.09;4972768;28;20022;-59
2022/08/24 11:10:45;;;;;;;2.88;1.67;;;;;;;31.71;80.10;168886.84;4985494;28;20764;-59
2022/08/24 11:13:16;;;;;;;4.30;1.85;;;;;;;31.94;76.49;168949.63;4989230;28;20160;-59
2022/08/24 11:16:00;;;;;;;4.00;1.73;;;;;;;31.86;76.27;168927.78;4988538;28;20039;-59
2022/08/24 11:18:44;;;;;;;8.50;1.80;;;;;;;31.89;78.83;168936.00;4991504;28;20117;-59
2022/08/24 11:21:09;;;;;;;5.30;2.30;;;;;;;32.12;75.14;168996.03;4989632;28;20439;-60
2022/08/24 11:23:35;;;;;;;10.38;2.13;;;;;;;31.92;74.50;168944.16;4989756;28;20079;-60
2022/08/24 11:26:06;;;;;;;5.88;1.60;;;;;;;31.25;75.50;168766.72;4989645;28;20582;-60
2022/08/24 11:28:41;;;;;;;3.80;2.13;;;;;;;30.95;77.63;168687.56;4991208;28;20034;-60
2022/08/24 11:31:25;;;;;;;3.83;1.90;;;;;;;31.08;78.62;168720.34;4990910;28;20042;-60